createdAt,value
2023-02-09T00:01:24.383Z,-2.60
2023-02-09T00:03:53.314Z,-2.50
2023-02-09T00:06:23.309Z,-2.50
2023-02-09T00:08:52.057Z,-2.50
2023-02-09T00:11:22.281Z,-2.30
2023-02-09T00:13:49.363Z,-2.50
2023-02-09T00:16:18.669Z,-2.40
2023-02-09T00:18:46.806Z,-2.40
2023-02-09T00:21:14.888Z,-2.50
2023-02-09T00:23:42.955Z,-2.50
2023-02-09T00:26:12.793Z,-2.50
2023-02-09T00:28:40.893Z,-2.40
2023-02-09T00:31:10.274Z,-2.40
2023-02-09T00:33:39.845Z,-2.60
2023-02-09T00:36:09.472Z,-2.60
2023-02-09T00:38:38.550Z,-2.50
2023-02-09T00:41:07.001Z,-2.50
2023-02-09T00:43:35.659Z,-2.80
2023-02-09T00:46:04.017Z,-2.70
2023-02-09T00:48:32.196Z,-2.60
2023-02-09T00:51:01.626Z,-2.60
2023-02-09T00:53:29.796Z,-2.50
2023-02-09T00:55:59.910Z,-2.60
2023-02-09T00:58:28.147Z,-2.70
2023-02-09T01:00:56.299Z,-2.80
2023-02-09T01:03:24.472Z,-2.60
2023-02-09T01:05:53.337Z,-2.60
2023-02-09T01:08:22.606Z,-2.70
2023-02-09T01:10:50.679Z,-2.70
2023-02-09T01:13:18.718Z,-2.60
2023-02-09T01:15:46.600Z,-2.70
2023-02-09T01:18:14.967Z,-2.70
2023-02-09T01:20:43.794Z,-2.80
2023-02-09T01:23:11.871Z,-2.80
2023-02-09T01:25:41.254Z,-2.90
2023-02-09T01:28:09.485Z,-2.90
2023-02-09T10:26:22.825Z,9.90
2023-02-09T10:28:53.159Z,11.90
2023-02-09T10:31:26.172Z,11.90
2023-02-09T10:33:59.482Z,12.60
2023-02-09T10:36:30.530Z,13.90
2023-02-09T10:39:14.780Z,15.00
2023-02-09T10:41:47.474Z,16.10
2023-02-09T10:44:22.759Z,17.30
2023-02-09T10:47:18.040Z,17.80
2023-02-09T10:50:03.204Z,18.90
2023-02-09T10:52:37.562Z,19.90
2023-02-09T10:55:08.642Z,20.40
2023-02-09T10:57:39.662Z,20.60
2023-02-09T11:00:30.291Z,21.00
2023-02-09T11:03:01.992Z,21.30
2023-02-09T11:05:36.060Z,21.00
2023-02-09T11:08:18.694Z,19.70
2023-02-09T11:10:57.908Z,20.30
2023-02-09T11:13:30.013Z,20.60
2023-02-09T11:16:15.000Z,20.50
2023-02-09T11:18:46.729Z,21.00
2023-02-09T11:21:18.959Z,20.90
2023-02-09T11:23:54.200Z,21.20
2023-02-09T11:26:34.284Z,21.00
2023-02-09T11:29:10.844Z,20.40
2023-02-09T11:32:14.137Z,20.30
2023-02-09T11:35:01.755Z,20.00
2023-02-09T11:37:42.582Z,19.40
2023-02-09T11:40:28.930Z,17.60
2023-02-09T11:43:07.626Z,15.30
2023-02-09T11:45:44.478Z,13.40
2023-02-09T11:48:15.367Z,12.10
2023-02-09T11:50:53.842Z,11.10
2023-02-09T11:53:39.622Z,10.50
2023-02-09T11:56:09.831Z,9.80
2023-02-09T11:58:47.243Z,9.10
2023-02-09T12:01:33.629Z,8.80
2023-02-09T12:04:10.987Z,8.60
2023-02-09T12:06:42.362Z,8.20
2023-02-09T12:09:28.618Z,8.00
2023-02-09T12:12:09.217Z,7.70
2023-02-09T12:14:58.224Z,7.50
2023-02-09T12:17:35.865Z,7.40
2023-02-09T12:20:05.056Z,7.30
2023-02-09T12:22:53.253Z,7.30
2023-02-09T12:25:46.077Z,7.20
2023-02-09T12:28:44.233Z,7.30
2023-02-09T12:31:22.114Z,7.10
2023-02-09T12:34:28.662Z,7.00
2023-02-09T12:37:18.154Z,6.90
2023-02-09T12:40:23.945Z,6.90
2023-02-09T12:43:29.256Z,7.00
2023-02-09T12:46:47.405Z,7.10
2023-02-09T12:49:22.402Z,7.20
2023-02-09T12:52:17.574Z,7.20
2023-02-09T12:54:51.459Z,7.10
2023-02-09T12:57:53.239Z,7.10
2023-02-09T13:00:32.792Z,6.80
2023-02-09T13:03:20.432Z,6.50
2023-02-09T13:05:51.237Z,6.60
2023-02-09T13:08:46.171Z,6.60
2023-02-09T13:11:27.095Z,6.60
2023-02-09T13:13:57.875Z,6.90
2023-02-09T13:17:17.120Z,6.80
2023-02-09T13:20:15.832Z,6.40
2023-02-09T13:23:14.326Z,6.30
2023-02-09T13:25:44.175Z,6.10
2023-02-09T13:28:18.247Z,6.00
2023-02-09T13:30:47.498Z,5.80
2023-02-09T13:33:43.589Z,5.80
2023-02-09T13:36:25.302Z,6.00
2023-02-09T13:38:55.130Z,6.00
2023-02-09T13:41:31.064Z,6.00
2023-02-09T13:43:59.299Z,5.90
2023-02-09T13:46:31.506Z,5.90
2023-02-09T13:49:12.227Z,5.90
2023-02-09T13:51:40.313Z,5.80
2023-02-09T13:54:19.587Z,5.90
2023-02-09T13:56:48.068Z,5.90
2023-02-09T13:59:18.009Z,6.00
2023-02-09T14:01:47.174Z,6.00
2023-02-09T14:04:19.972Z,6.00
2023-02-09T14:06:53.291Z,6.00
2023-02-09T14:09:26.638Z,6.00
2023-02-09T14:11:56.366Z,5.90
2023-02-09T14:14:27.850Z,6.00
2023-02-09T14:17:24.278Z,6.00
2023-02-09T14:19:54.247Z,5.90
2023-02-09T14:22:31.541Z,5.90
2023-02-09T14:25:01.131Z,5.80
2023-02-09T14:27:33.004Z,5.90
2023-02-09T14:30:01.292Z,5.80
2023-02-09T14:32:35.437Z,5.80
2023-02-09T14:35:17.526Z,5.70
2023-02-09T14:37:45.944Z,5.70
2023-02-09T14:40:23.874Z,5.70
2023-02-09T14:43:00.560Z,5.90
2023-02-09T14:45:32.350Z,5.90
2023-02-09T14:48:00.347Z,5.70
2023-02-09T14:50:28.502Z,5.70
2023-02-09T14:53:06.934Z,5.60
2023-02-09T14:55:40.571Z,5.60
2023-02-09T14:58:13.396Z,5.70
2023-02-09T15:00:41.766Z,5.70
2023-02-09T15:03:09.879Z,5.40
2023-02-09T15:05:37.908Z,5.40
2023-02-09T15:08:08.898Z,5.30
2023-02-09T15:10:43.678Z,5.20
2023-02-09T15:13:12.783Z,5.20
2023-02-09T15:15:40.856Z,5.10
2023-02-09T15:18:13.936Z,5.10
2023-02-09T15:20:42.009Z,5.20
2023-02-09T15:23:10.671Z,5.20
2023-02-09T15:25:41.925Z,5.10
2023-02-09T15:28:16.971Z,4.90
2023-02-09T15:30:45.570Z,4.90
2023-02-09T15:33:13.635Z,4.90
2023-02-09T15:35:42.127Z,4.90
2023-02-09T15:38:12.032Z,4.90
2023-02-09T15:41:01.109Z,4.90
2023-02-09T15:43:47.846Z,4.90
2023-02-09T15:46:35.237Z,4.80
2023-02-09T15:49:03.405Z,4.70
2023-02-09T15:51:34.235Z,4.70
2023-02-09T15:54:04.829Z,4.70
2023-02-09T15:56:36.618Z,4.80
2023-02-09T15:59:05.871Z,4.80
2023-02-09T16:01:34.930Z,4.70
2023-02-09T16:04:13.496Z,4.80
2023-02-09T16:06:45.314Z,4.80
2023-02-09T16:09:19.058Z,4.70
2023-02-09T16:11:48.514Z,4.60
2023-02-09T16:14:20.545Z,4.40
2023-02-09T16:16:49.294Z,4.50
2023-02-09T16:19:17.848Z,4.50
2023-02-09T16:21:49.843Z,4.30
2023-02-09T16:24:23.024Z,4.20
2023-02-09T16:26:52.619Z,4.10
2023-02-09T16:29:20.618Z,4.10
2023-02-09T16:31:49.314Z,4.10
2023-02-09T16:34:17.458Z,4.20
2023-02-09T16:36:48.237Z,4.30
2023-02-09T16:39:19.052Z,4.30
2023-02-09T16:41:48.208Z,4.20
2023-02-09T16:44:20.775Z,4.10
2023-02-09T16:46:50.478Z,3.90
2023-02-09T16:49:31.073Z,4.00
2023-02-09T16:52:01.918Z,3.90
2023-02-09T16:54:31.354Z,3.80
2023-02-09T16:56:59.435Z,3.80
2023-02-09T16:59:29.201Z,3.80
2023-02-09T17:01:59.765Z,3.80
2023-02-09T17:04:28.112Z,3.90
2023-02-09T17:06:56.363Z,3.90
2023-02-09T17:09:24.449Z,3.80
2023-02-09T17:11:52.357Z,3.90
2023-02-09T17:14:20.274Z,4.00
2023-02-09T17:16:50.149Z,3.90
2023-02-09T17:19:19.149Z,3.90
2023-02-09T17:21:47.110Z,3.90
2023-02-09T17:24:17.157Z,3.70
2023-02-09T17:26:45.834Z,3.60
2023-02-09T17:29:13.785Z,3.70
2023-02-09T17:31:53.298Z,3.60
2023-02-09T17:34:27.001Z,3.50
2023-02-09T17:36:55.258Z,3.50
2023-02-09T17:39:23.121Z,3.50
2023-02-09T17:41:51.162Z,3.50
2023-02-09T17:44:34.848Z,3.50
2023-02-09T17:47:07.583Z,3.40
2023-02-09T17:49:37.076Z,3.30
2023-02-09T17:52:05.486Z,3.30
2023-02-09T17:54:33.909Z,3.30
2023-02-09T17:57:01.945Z,3.20
2023-02-09T17:59:29.907Z,3.10
2023-02-09T18:01:59.227Z,3.10
2023-02-09T18:04:28.637Z,3.00
2023-02-09T18:06:58.438Z,3.10
2023-02-09T18:09:26.442Z,3.00
2023-02-09T18:12:02.167Z,2.70
2023-02-09T18:14:32.024Z,2.70
2023-02-09T18:17:00.412Z,2.60
2023-02-09T18:19:28.694Z,2.50
2023-02-09T18:21:59.786Z,2.50
2023-02-09T18:24:29.827Z,2.40
2023-02-09T18:26:58.510Z,2.50
2023-02-09T18:29:29.637Z,2.40
2023-02-09T18:31:57.907Z,2.40
2023-02-09T18:34:26.413Z,2.50
2023-02-09T18:36:54.468Z,2.40
2023-02-09T18:39:23.938Z,2.40
2023-02-09T18:41:54.477Z,2.30
2023-02-09T18:44:24.618Z,2.30
2023-02-09T18:46:52.575Z,2.20
2023-02-09T18:49:20.875Z,2.20
2023-02-09T18:51:48.806Z,2.20
2023-02-09T18:54:16.840Z,2.20
2023-02-09T18:56:46.316Z,2.20
2023-02-09T18:59:14.802Z,2.10
2023-02-09T19:01:42.799Z,2.10
2023-02-09T19:04:10.806Z,2.10
2023-02-09T19:06:39.610Z,2.10
2023-02-09T19:09:07.632Z,2.00
2023-02-09T19:11:35.694Z,2.00
2023-02-09T19:14:22.995Z,1.90
2023-02-09T19:16:50.961Z,1.90
2023-02-09T19:19:19.216Z,1.90
2023-02-09T19:21:52.123Z,1.90
2023-02-09T19:24:20.301Z,1.90
2023-02-09T19:26:48.520Z,1.80
2023-02-09T19:29:18.016Z,1.70
2023-02-09T19:31:46.667Z,1.90
2023-02-09T19:34:14.545Z,1.80
2023-02-09T19:36:42.519Z,1.80
2023-02-09T19:39:11.952Z,1.80
2023-02-09T19:41:39.960Z,1.80
2023-02-09T19:44:08.140Z,1.70
2023-02-09T19:46:37.540Z,1.60
2023-02-09T19:49:05.498Z,1.60
2023-02-09T19:51:33.708Z,1.60
2023-02-09T19:54:01.729Z,1.60
2023-02-09T19:56:29.564Z,1.60
2023-02-09T19:58:57.809Z,1.50
2023-02-09T20:01:27.043Z,1.40
2023-02-09T20:03:57.070Z,1.50
2023-02-09T20:06:25.523Z,1.50
2023-02-09T20:08:53.508Z,1.40
2023-02-09T20:11:22.634Z,1.40
2023-02-09T20:13:52.652Z,1.40
2023-02-09T20:16:24.436Z,1.40
2023-02-09T20:18:53.125Z,1.40
2023-02-09T20:21:24.193Z,1.30
2023-02-09T20:23:55.518Z,1.30
2023-02-09T20:26:26.898Z,1.20
2023-02-09T20:28:55.345Z,1.10
2023-02-09T20:31:25.000Z,1.10
2023-02-09T20:33:53.689Z,1.10
2023-02-09T20:36:24.628Z,1.00
2023-02-09T20:38:53.795Z,1.00
2023-02-09T20:41:21.982Z,1.10
2023-02-09T20:44:07.686Z,1.00
2023-02-09T20:46:53.964Z,1.10
2023-02-09T20:49:22.252Z,1.10
2023-02-09T20:51:51.586Z,1.00
2023-02-09T20:54:19.890Z,1.00
2023-02-09T20:56:47.858Z,1.00
2023-02-09T20:59:16.549Z,1.00
2023-02-09T21:01:45.925Z,1.00
2023-02-09T21:04:13.985Z,1.00
2023-02-09T21:06:41.956Z,0.90
2023-02-09T21:09:15.435Z,0.90
2023-02-09T21:11:44.022Z,0.80
2023-02-09T21:14:21.875Z,0.80
2023-02-09T21:17:00.379Z,0.80
2023-02-09T21:19:28.349Z,0.80
2023-02-09T21:21:56.390Z,0.70
2023-02-09T21:24:25.850Z,0.70
2023-02-09T21:26:53.891Z,0.70
2023-02-09T21:29:21.919Z,0.60
2023-02-09T21:31:51.386Z,0.60
2023-02-09T21:34:19.358Z,0.80
2023-02-09T21:36:47.271Z,0.80
2023-02-09T21:39:15.340Z,0.60
2023-02-09T21:42:02.350Z,0.70
2023-02-09T21:44:31.174Z,0.80
2023-02-09T21:47:00.545Z,0.90
2023-02-09T21:49:31.653Z,0.90
2023-02-09T21:52:00.095Z,0.70
2023-02-09T21:54:33.142Z,0.80
2023-02-09T21:57:03.366Z,0.70
2023-02-09T21:59:31.398Z,0.60
2023-02-09T22:01:59.337Z,0.60
2023-02-09T22:04:27.516Z,0.50
2023-02-09T22:06:55.564Z,0.50
2023-02-09T22:09:25.014Z,0.40
2023-02-09T22:11:53.152Z,0.40
2023-02-09T22:14:22.452Z,0.40
2023-02-09T22:16:50.665Z,0.30
2023-02-09T22:19:18.570Z,0.40
2023-02-09T22:21:46.509Z,0.30
2023-02-09T22:24:16.625Z,0.10
2023-02-09T22:26:44.892Z,0.20
2023-02-09T22:29:14.538Z,0.30
2023-02-09T22:31:44.366Z,0.40
2023-02-09T22:34:12.674Z,0.40
2023-02-09T22:36:40.982Z,0.30
2023-02-09T22:39:09.363Z,0.30
2023-02-09T22:41:37.650Z,0.20
2023-02-09T22:44:08.331Z,0.20
2023-02-09T22:46:38.291Z,0.20
2023-02-09T22:49:09.428Z,0.00
2023-02-09T22:51:37.970Z,-0.20
2023-02-09T22:56:48.063Z,-0.10
2023-02-09T22:59:16.801Z,-0.20
2023-02-09T23:01:45.540Z,-0.20
2023-02-09T23:04:13.895Z,-0.20
2023-02-09T23:06:41.954Z,-0.10
2023-02-09T23:09:09.871Z,-0.10
2023-02-09T23:11:38.007Z,-0.10
2023-02-09T23:14:10.198Z,0.00
2023-02-09T23:16:40.713Z,0.00
2023-02-09T23:19:12.824Z,0.00
2023-02-09T23:21:42.944Z,-0.10
2023-02-09T23:24:11.586Z,-0.20
2023-02-09T23:26:39.861Z,-0.20
2023-02-09T23:29:11.633Z,-0.30
2023-02-09T23:31:40.283Z,-0.20
2023-02-09T23:34:08.841Z,-0.20
2023-02-09T23:36:36.745Z,-0.10
2023-02-09T23:39:07.190Z,-0.20
2023-02-09T23:41:36.330Z,-0.10
2023-02-09T23:44:05.030Z,-0.10
2023-02-09T23:46:34.447Z,-0.10
2023-02-09T23:49:02.552Z,-0.10
2023-02-09T23:51:31.946Z,-0.10
2023-02-09T23:54:01.598Z,-0.10
2023-02-09T23:56:31.914Z,-0.20
2023-02-09T23:59:00.098Z,-0.20
